Time;durP1;ratioP1;P1;durP2;ratioP2;P2;SDS_P1;SDS_P2;PMS_P1;PMS_P2;Temp;Humidity;BMP_temperature;BMP_pressure;BME280_temperature;BME280_humidity;BME280_pressure;Samples;Min_cycle;Max_cycle;Signal;HPM_P1;HPM_P2
2021/07/23 00:01:46;;;;;;;23.53;21.23;;;19.00;99.90;;;;;;5113740;28;20445;-77
2021/07/23 00:04:13;;;;;;;22.03;20.40;;;18.90;99.90;;;;;;5113888;28;20448;-78
2021/07/23 00:06:40;;;;;;;22.10;20.40;;;18.80;99.90;;;;;;5113814;28;20445;-78
2021/07/23 00:09:06;;;;;;;23.17;21.47;;;18.80;99.90;;;;;;5113798;28;20538;-78
2021/07/23 00:11:33;;;;;;;24.10;22.30;;;18.80;99.90;;;;;;5113435;28;20960;-79
2021/07/23 00:14:01;;;;;;;22.90;21.10;;;18.80;99.90;;;;;;5113660;28;20469;-79
2021/07/23 00:16:28;;;;;;;24.80;22.70;;;18.80;99.90;;;;;;5113626;28;20442;-78
2021/07/23 00:18:55;;;;;;;24.00;22.10;;;18.70;99.90;;;;;;5113635;28;20460;-79
2021/07/23 00:21:21;;;;;;;23.17;21.10;;;18.70;99.90;;;;;;5113588;28;20472;-79
2021/07/23 00:23:48;;;;;;;23.27;21.47;;;18.60;99.90;;;;;;5113477;28;20514;-79
2021/07/23 00:26:18;;;;;;;22.93;20.97;;;18.60;99.90;;;;;;5113417;28;20476;-79
2021/07/23 00:28:45;;;;;;;22.70;20.93;;;18.60;99.90;;;;;;5113338;28;20484;-78
2021/07/23 00:31:14;;;;;;;23.30;21.43;;;18.60;99.90;;;;;;5113624;28;20449;-78
2021/07/23 00:33:40;;;;;;;24.17;22.20;;;18.50;99.90;;;;;;5113134;28;20457;-78
2021/07/23 00:36:07;;;;;;;23.00;21.30;;;18.50;99.90;;;;;;5113107;28;20450;-79
2021/07/23 00:38:34;;;;;;;22.50;20.87;;;18.40;99.90;;;;;;5112388;28;20996;-79
2021/07/23 00:41:00;;;;;;;22.97;21.27;;;18.40;99.90;;;;;;5113194;28;20860;-78
2021/07/23 00:43:27;;;;;;;23.13;21.23;;;18.40;99.90;;;;;;5112893;28;20441;-79
2021/07/23 00:45:55;;;;;;;23.57;21.53;;;18.40;99.90;;;;;;5113200;28;20456;-78
2021/07/23 00:48:24;;;;;;;24.20;22.20;;;18.40;99.90;;;;;;5112814;28;20482;-79
2021/07/23 00:50:51;;;;;;;23.30;21.40;;;18.50;99.90;;;;;;5113030;28;20456;-79
2021/07/23 00:53:18;;;;;;;23.50;21.70;;;18.50;99.90;;;;;;5113121;28;20467;-79
2021/07/23 00:55:51;;;;;;;24.37;22.30;;;18.40;99.90;;;;;;5112863;28;20446;-79
2021/07/23 00:58:18;;;;;;;24.07;21.67;;;18.50;99.90;;;;;;5112778;28;20568;-79
2021/07/23 01:00:45;;;;;;;21.00;19.43;;;18.40;99.90;;;;;;5113079;28;20482;-78
2021/07/23 01:03:11;;;;;;;24.37;22.57;;;18.50;99.90;;;;;;5112820;28;20456;-78
2021/07/23 01:05:40;;;;;;;23.43;21.43;;;18.50;99.90;;;;;;5112955;28;20816;-78
2021/07/23 01:08:06;;;;;;;23.27;21.43;;;18.50;99.90;;;;;;5112654;28;20477;-77
2021/07/23 01:10:37;;;;;;;23.20;21.40;;;18.60;99.90;;;;;;5112731;28;20678;-77
2021/07/23 01:13:05;;;;;;;22.40;20.50;;;18.60;99.90;;;;;;5112586;28;20568;-77
2021/07/23 01:15:32;;;;;;;24.10;22.10;;;18.60;99.90;;;;;;5112240;28;20461;-77
2021/07/23 01:17:58;;;;;;;24.77;22.67;;;18.60;99.90;;;;;;5112623;28;20449;-77
2021/07/23 01:20:27;;;;;;;23.87;22.13;;;18.60;99.90;;;;;;5112465;28;20450;-77
2021/07/23 01:22:59;;;;;;;24.07;22.07;;;18.50;99.90;;;;;;5112466;28;20449;-77
2021/07/23 01:25:27;;;;;;;23.67;21.77;;;18.40;99.90;;;;;;5112217;28;20562;-77
2021/07/23 01:27:56;;;;;;;25.67;23.87;;;18.30;99.90;;;;;;5112125;28;20453;-77
2021/07/23 01:30:24;;;;;;;25.47;23.33;;;18.30;99.90;;;;;;5112110;28;20449;-77
2021/07/23 01:32:51;;;;;;;24.77;22.73;;;18.10;99.90;;;;;;5112141;28;20945;-78
2021/07/23 01:35:18;;;;;;;24.30;22.40;;;18.00;99.90;;;;;;5111965;28;20453;-78
2021/07/23 01:37:46;;;;;;;24.80;22.70;;;18.10;99.90;;;;;;5112063;28;20967;-77
2021/07/23 01:40:14;;;;;;;23.80;22.00;;;18.10;99.90;;;;;;5111875;28;20449;-77
2021/07/23 01:42:44;;;;;;;23.37;21.60;;;17.90;99.90;;;;;;5111939;28;20479;-77
2021/07/23 01:45:12;;;;;;;24.67;22.57;;;17.90;99.90;;;;;;5112128;28;20476;-78
2021/07/23 01:47:38;;;;;;;23.67;21.73;;;17.80;99.90;;;;;;5111633;28;20477;-78
2021/07/23 01:50:06;;;;;;;25.00;22.90;;;17.70;99.90;;;;;;5111617;28;20481;-78
2021/07/23 01:52:33;;;;;;;23.50;21.70;;;17.70;99.90;;;;;;5111769;28;20449;-78
2021/07/23 01:54:59;;;;;;;24.27;22.37;;;17.70;99.90;;;;;;5112015;28;20455;-79
2021/07/23 01:57:26;;;;;;;24.10;22.50;;;17.70;99.90;;;;;;5111716;28;20449;-79
2021/07/23 01:59:54;;;;;;;24.83;22.93;;;17.70;99.90;;;;;;5111664;28;20445;-78
2021/07/23 02:02:21;;;;;;;26.20;23.60;;;17.70;99.90;;;;;;5111661;28;20848;-79
2021/07/23 02:04:48;;;;;;;26.10;24.00;;;17.70;99.90;;;;;;5111639;28;20438;-79
2021/07/23 02:07:14;;;;;;;24.43;22.40;;;17.60;99.90;;;;;;5111606;28;20449;-79
2021/07/23 02:09:41;;;;;;;27.27;25.00;;;17.50;99.90;;;;;;5111497;28;20491;-79
2021/07/23 02:12:09;;;;;;;26.03;24.23;;;17.40;99.90;;;;;;5111789;28;20453;-79
2021/07/23 02:14:35;;;;;;;25.57;23.53;;;17.30;99.90;;;;;;5111262;28;20560;-79
2021/07/23 02:17:04;;;;;;;26.10;24.23;;;17.30;99.90;;;;;;5111804;28;20449;-79
2021/07/23 02:19:30;;;;;;;25.13;22.80;;;17.30;99.90;;;;;;5111517;28;20445;-79
2021/07/23 02:21:57;;;;;;;27.10;24.90;;;17.30;99.90;;;;;;5111410;28;20964;-80
2021/07/23 02:24:24;;;;;;;25.97;23.50;;;17.20;99.90;;;;;;5111438;28;20458;-80
2021/07/23 02:26:50;;;;;;;25.53;23.53;;;17.20;99.90;;;;;;5111391;28;20441;-79
2021/07/23 02:29:17;;;;;;;26.00;23.90;;;17.20;99.90;;;;;;5111451;28;20477;-79
2021/07/23 02:31:44;;;;;;;26.50;24.37;;;17.30;99.90;;;;;;5111504;28;20445;-76
2021/07/23 02:34:12;;;;;;;26.20;24.13;;;17.20;99.90;;;;;;5111320;28;20454;-77
2021/07/23 02:36:38;;;;;;;25.87;23.57;;;17.20;99.90;;;;;;5111537;28;20445;-77
2021/07/23 02:39:05;;;;;;;24.60;22.80;;;17.20;99.90;;;;;;5111306;28;20441;-77
2021/07/23 02:41:32;;;;;;;26.27;24.37;;;17.20;99.90;;;;;;5111073;28;20962;-77
2021/07/23 02:43:58;;;;;;;25.47;23.30;;;17.20;99.90;;;;;;5111344;28;20442;-77
2021/07/23 02:46:25;;;;;;;25.93;23.90;;;17.20;99.90;;;;;;5111271;28;20457;-77
2021/07/23 02:48:52;;;;;;;25.47;23.20;;;17.20;99.90;;;;;;5110868;28;20496;-77
2021/07/23 02:51:20;;;;;;;27.60;25.07;;;17.10;99.90;;;;;;5111107;28;20452;-76
2021/07/23 02:53:47;;;;;;;27.03;24.90;;;17.00;99.90;;;;;;5111058;28;20841;-76
2021/07/23 02:56:13;;;;;;;28.27;25.97;;;17.00;99.90;;;;;;5111647;28;20450;-76
2021/07/23 02:58:42;;;;;;;29.07;26.70;;;17.00;99.90;;;;;;5111270;28;20445;-76
2021/07/23 03:01:09;;;;;;;29.23;26.73;;;17.00;99.90;;;;;;5111648;28;20450;-77
2021/07/23 03:03:35;;;;;;;30.50;27.60;;;16.90;99.90;;;;;;5115859;28;20945;-77
2021/07/23 03:06:02;;;;;;;28.57;26.00;;;16.90;99.90;;;;;;5115186;28;20453;-77
2021/07/23 03:08:30;;;;;;;29.23;26.83;;;16.90;99.90;;;;;;5115065;28;20498;-78
2021/07/23 03:10:57;;;;;;;28.17;25.67;;;16.90;99.90;;;;;;5114928;28;20452;-76
2021/07/23 03:13:24;;;;;;;29.60;27.10;;;16.90;99.90;;;;;;5114613;28;20996;-78
2021/07/23 03:15:52;;;;;;;28.67;25.93;;;16.80;99.90;;;;;;5114858;28;20453;-79
2021/07/23 03:18:19;;;;;;;28.30;26.00;;;16.80;99.90;;;;;;5114823;28;20475;-78
2021/07/23 03:20:46;;;;;;;28.30;25.90;;;16.80;99.90;;;;;;5115044;28;20811;-78
2021/07/23 03:23:13;;;;;;;29.40;26.80;;;16.80;99.90;;;;;;5114652;28;20445;-77
2021/07/23 03:25:41;;;;;;;28.63;26.40;;;16.70;99.90;;;;;;5114609;28;20788;-78
2021/07/23 03:28:07;;;;;;;28.90;26.20;;;16.70;99.90;;;;;;5114436;28;20445;-80
2021/07/23 03:30:34;;;;;;;27.93;25.77;;;16.70;99.90;;;;;;5114633;28;20488;-77
2021/07/23 03:33:01;;;;;;;30.93;28.20;;;16.70;99.90;;;;;;5114546;28;20445;-84
2021/07/23 03:35:28;;;;;;;30.30;27.40;;;16.70;99.90;;;;;;5114359;28;20453;-84
2021/07/23 03:37:54;;;;;;;29.43;26.73;;;16.60;99.90;;;;;;5114432;28;20456;-83
2021/07/23 03:40:21;;;;;;;27.27;25.10;;;16.60;99.90;;;;;;5114015;28;20449;-81
2021/07/23 03:42:49;;;;;;;30.17;27.37;;;16.60;99.90;;;;;;5114299;28;20449;-83
2021/07/23 03:45:16;;;;;;;29.77;27.23;;;16.50;99.90;;;;;;5115187;28;20453;-86
2021/07/23 03:47:43;;;;;;;28.43;26.00;;;16.60;99.90;;;;;;5114973;28;20991;-85
2021/07/23 03:50:10;;;;;;;27.83;25.60;;;16.60;99.90;;;;;;5114986;28;20907;-86
2021/07/23 03:52:37;;;;;;;26.73;24.57;;;16.60;99.90;;;;;;5114368;28;20449;-81
2021/07/23 03:55:04;;;;;;;27.90;25.53;;;16.60;99.90;;;;;;5114036;28;20502;-81
2021/07/23 03:57:31;;;;;;;28.77;26.27;;;16.60;99.90;;;;;;5113805;28;20453;-81
2021/07/23 03:59:59;;;;;;;29.93;27.03;;;16.60;99.90;;;;;;5114031;28;20482;-80
2021/07/23 04:02:25;;;;;;;27.67;25.43;;;16.60;99.90;;;;;;5113843;28;20449;-77
2021/07/23 04:04:52;;;;;;;27.13;24.90;;;16.60;99.90;;;;;;5113471;28;20445;-77
2021/07/23 04:07:19;;;;;;;26.80;24.60;;;16.60;99.90;;;;;;5113814;28;20457;-80
2021/07/23 04:09:45;;;;;;;28.33;25.90;;;16.60;99.90;;;;;;5113619;28;20485;-80
2021/07/23 04:12:12;;;;;;;27.03;24.80;;;16.60;99.90;;;;;;5113586;28;20481;-81
2021/07/23 04:14:39;;;;;;;28.67;26.30;;;16.70;99.90;;;;;;5112348;28;20470;-81
2021/07/23 04:17:07;;;;;;;28.00;25.70;;;16.60;99.90;;;;;;5113216;28;20456;-82
2021/07/23 04:19:33;;;;;;;28.20;25.40;;;16.60;99.90;;;;;;5113641;28;20441;-83
2021/07/23 04:22:01;;;;;;;27.03;24.47;;;16.60;99.90;;;;;;5113449;28;20449;-82
2021/07/23 04:24:28;;;;;;;26.20;23.63;;;16.60;99.90;;;;;;5113267;28;20442;-82
2021/07/23 04:26:57;;;;;;;37.93;27.37;;;16.60;99.90;;;;;;5113113;28;20453;-81
2021/07/23 04:29:24;;;;;;;26.77;24.57;;;16.70;99.90;;;;;;5113216;28;20513;-83
2021/07/23 04:31:50;;;;;;;28.90;26.40;;;16.70;99.90;;;;;;5113216;28;20815;-84
2021/07/23 04:34:18;;;;;;;30.33;27.57;;;16.70;99.90;;;;;;5113289;28;20445;-83
2021/07/23 04:36:45;;;;;;;29.53;26.77;;;16.80;99.90;;;;;;5113186;28;20479;-83
2021/07/23 04:39:12;;;;;;;31.07;26.90;;;16.80;99.90;;;;;;5112928;28;20445;-80
2021/07/23 04:41:40;;;;;;;29.20;26.53;;;16.80;99.90;;;;;;5113011;28;20502;-79
2021/07/23 04:44:07;;;;;;;28.20;25.60;;;16.90;99.90;;;;;;5113098;28;20510;-80
2021/07/23 04:46:34;;;;;;;27.90;25.60;;;17.10;99.90;;;;;;5112714;28;20705;-78
2021/07/23 04:49:00;;;;;;;25.37;23.47;;;17.40;99.90;;;;;;5112676;28;20469;-79
2021/07/23 04:51:30;;;;;;;27.57;25.53;;;17.60;99.90;;;;;;5112754;28;20445;-78
2021/07/23 04:53:56;;;;;;;27.07;24.60;;;17.90;99.90;;;;;;5112813;28;20514;-79
2021/07/23 04:56:23;;;;;;;26.13;23.80;;;18.20;99.90;;;;;;5112583;28;20454;-80
2021/07/23 04:58:50;;;;;;;25.93;23.50;;;18.50;99.90;;;;;;5112508;28;21018;-80
2021/07/23 05:01:17;;;;;;;25.00;23.23;;;18.80;99.90;;;;;;5112613;28;20441;-81
2021/07/23 05:03:45;;;;;;;26.10;24.10;;;19.00;99.90;;;;;;5112451;28;20925;-81
2021/07/23 05:06:11;;;;;;;26.07;24.00;;;19.20;99.90;;;;;;5112582;28;20441;-81
2021/07/23 05:08:40;;;;;;;24.87;22.77;;;19.50;99.90;;;;;;5112375;28;21088;-78
2021/07/23 05:11:10;;;;;;;25.53;23.33;;;19.80;99.90;;;;;;5112362;28;20489;-79
2021/07/23 05:13:37;;;;;;;25.57;23.67;;;19.90;99.90;;;;;;5112281;28;20469;-77
2021/07/23 05:16:05;;;;;;;26.83;24.40;;;20.00;99.90;;;;;;5112315;28;20944;-77
2021/07/23 05:18:32;;;;;;;26.80;24.70;;;20.10;99.90;;;;;;5112103;28;20985;-79
2021/07/23 05:20:59;;;;;;;31.47;28.13;;;20.30;99.90;;;;;;5112177;28;20445;-81
2021/07/23 05:23:25;;;;;;;26.53;23.93;;;20.60;99.90;;;;;;5112012;28;20465;-77
2021/07/23 05:25:53;;;;;;;26.70;24.50;;;20.50;99.90;;;;;;5111777;28;20449;-78
2021/07/23 05:28:20;;;;;;;27.70;25.40;;;20.80;99.90;;;;;;5112412;28;20449;-81
2021/07/23 05:30:47;;;;;;;26.60;24.53;;;20.90;99.90;;;;;;5111928;28;20481;-75
2021/07/23 05:33:14;;;;;;;28.43;26.23;;;21.00;99.90;;;;;;5111690;28;20515;-76
2021/07/23 05:35:40;;;;;;;28.53;25.83;;;21.30;99.90;;;;;;5111879;28;20498;-78
2021/07/23 05:38:13;;;;;;;27.07;24.93;;;21.50;99.90;;;;;;5111909;28;20450;-72
2021/07/23 05:40:40;;;;;;;25.57;23.20;;;21.60;99.90;;;;;;5111949;28;20469;-72
2021/07/23 05:43:08;;;;;;;25.40;23.20;;;21.90;99.90;;;;;;5104728;28;20488;-72
2021/07/23 05:45:37;;;;;;;25.90;23.90;;;22.20;99.90;;;;;;5100597;28;20458;-72
2021/07/23 05:48:04;;;;;;;27.80;25.53;;;22.50;99.90;;;;;;5090941;28;20886;-72
2021/07/23 05:50:31;;;;;;;27.40;24.90;;;22.60;99.90;;;;;;5091442;28;20842;-72
2021/07/23 05:52:57;;;;;;;23.83;22.07;;;22.80;99.90;;;;;;5091501;28;21024;-72
2021/07/23 05:55:24;;;;;;;27.73;25.43;;;23.00;99.90;;;;;;5091511;28;20967;-72
2021/07/23 05:57:51;;;;;;;25.10;23.10;;;23.30;99.90;;;;;;5091494;28;20876;-72
2021/07/23 06:00:19;;;;;;;25.30;23.50;;;23.60;99.90;;;;;;5091355;28;20450;-72
2021/07/23 06:02:46;;;;;;;26.33;24.03;;;23.90;99.90;;;;;;5091270;28;20450;-72
2021/07/23 06:05:12;;;;;;;27.07;25.07;;;24.30;99.90;;;;;;5091268;28;20454;-73
2021/07/23 06:07:39;;;;;;;28.00;25.33;;;24.70;99.90;;;;;;5091301;28;20446;-73
2021/07/23 06:10:06;;;;;;;27.60;25.50;;;25.20;99.90;;;;;;5091256;28;20486;-72
2021/07/23 06:12:33;;;;;;;25.83;24.00;;;25.30;99.90;;;;;;5091003;28;20454;-73
2021/07/23 06:15:00;;;;;;;26.87;24.87;;;25.50;99.90;;;;;;5091123;28;20950;-72
2021/07/23 06:17:28;;;;;;;25.23;23.43;;;25.90;99.80;;;;;;5093292;28;20503;-72
2021/07/23 06:19:55;;;;;;;24.70;22.40;;;25.90;99.80;;;;;;5111215;28;20460;-72
2021/07/23 06:22:21;;;;;;;26.10;24.10;;;26.20;98.90;;;;;;5111452;28;20469;-73
2021/07/23 06:24:48;;;;;;;25.10;23.10;;;26.30;98.50;;;;;;5111589;28;20472;-73
2021/07/23 06:27:17;;;;;;;26.97;24.80;;;26.40;97.60;;;;;;5111383;28;20445;-72
2021/07/23 06:29:44;;;;;;;25.33;23.43;;;26.20;97.80;;;;;;5111251;28;20969;-73
2021/07/23 06:32:10;;;;;;;26.27;24.17;;;26.30;97.80;;;;;;5111259;28;20812;-72
2021/07/23 06:34:38;;;;;;;28.10;25.57;;;26.60;97.30;;;;;;5111111;28;20870;-73
2021/07/23 06:37:05;;;;;;;26.70;24.60;;;27.00;96.10;;;;;;5112868;28;20459;-73
2021/07/23 06:39:32;;;;;;;27.70;25.23;;;26.90;96.20;;;;;;5115287;28;20449;-73
2021/07/23 06:42:00;;;;;;;29.40;27.03;;;27.10;96.20;;;;;;5115237;28;20453;-73
2021/07/23 06:44:29;;;;;;;27.50;25.47;;;27.10;95.90;;;;;;5115495;28;20442;-73
2021/07/23 06:46:56;;;;;;;27.93;25.73;;;27.40;95.30;;;;;;5115351;28;20539;-73
2021/07/23 06:49:23;;;;;;;26.97;24.87;;;27.70;94.80;;;;;;5115216;28;20453;-73
2021/07/23 06:51:51;;;;;;;27.63;25.50;;;27.90;93.90;;;;;;5115268;28;20484;-72
2021/07/23 06:54:17;;;;;;;27.50;25.50;;;27.70;94.00;;;;;;5115346;28;20449;-72
2021/07/23 06:56:44;;;;;;;27.80;25.67;;;27.80;93.70;;;;;;5115393;28;20467;-72
2021/07/23 06:59:11;;;;;;;27.63;25.53;;;28.10;93.50;;;;;;5115175;28;20476;-72
2021/07/23 07:01:37;;;;;;;23.67;22.17;;;27.90;93.10;;;;;;5115182;28;20445;-73
2021/07/23 07:04:04;;;;;;;24.23;22.53;;;28.20;92.30;;;;;;5115016;28;20510;-73
2021/07/23 07:06:31;;;;;;;25.73;23.93;;;28.70;91.30;;;;;;5115028;28;20453;-73
2021/07/23 07:08:59;;;;;;;25.10;23.40;;;28.80;91.20;;;;;;5112922;28;20483;-72
2021/07/23 07:11:26;;;;;;;25.10;23.43;;;29.10;90.30;;;;;;5114867;28;20497;-72
2021/07/23 07:13:52;;;;;;;25.93;23.80;;;29.00;90.70;;;;;;5115005;28;20468;-72
2021/07/23 07:16:19;;;;;;;26.40;24.57;;;29.40;90.30;;;;;;5115101;28;20445;-79
2021/07/23 07:18:46;;;;;;;24.97;23.17;;;29.50;89.60;;;;;;5114867;28;20453;-79
2021/07/23 07:21:14;;;;;;;27.23;25.27;;;29.60;89.00;;;;;;5109462;27;20465;-73
2021/07/23 07:27:03;;;;;;;25.20;23.60;;;30.00;87.10;;;;;;5086495;28;20848;-73
2021/07/23 07:29:29;;;;;;;26.57;24.87;;;30.20;87.00;;;;;;5114236;28;20445;-74
2021/07/23 07:31:56;;;;;;;26.13;24.20;;;30.50;86.60;;;;;;5114355;28;20487;-74
2021/07/23 07:34:23;;;;;;;27.83;25.83;;;30.60;85.80;;;;;;5114227;28;20449;-73
2021/07/23 07:36:49;;;;;;;28.27;26.47;;;30.70;85.90;;;;;;5114461;28;20449;-73
2021/07/23 07:39:16;;;;;;;26.60;24.30;;;30.90;84.80;;;;;;5114243;28;20445;-73
2021/07/23 07:41:43;;;;;;;27.03;25.23;;;30.50;85.60;;;;;;5114074;28;20452;-73
2021/07/23 07:44:11;;;;;;;26.80;25.00;;;30.80;84.70;;;;;;5113818;28;20494;-73
2021/07/23 07:46:37;;;;;;;27.90;25.63;;;31.70;81.10;;;;;;5113703;28;20449;-73
2021/07/23 07:49:04;;;;;;;25.80;24.10;;;31.80;80.10;;;;;;5113635;28;20823;-73
2021/07/23 07:51:31;;;;;;;27.70;25.60;;;32.00;80.10;;;;;;5114049;28;20496;-73
2021/07/23 07:53:57;;;;;;;25.97;24.37;;;32.10;79.20;;;;;;5114054;28;20450;-73
2021/07/23 07:56:24;;;;;;;27.67;25.80;;;32.10;79.10;;;;;;5114077;28;20519;-73
2021/07/23 07:58:51;;;;;;;26.83;25.03;;;32.20;78.00;;;;;;5114250;28;20472;-73
2021/07/23 08:01:19;;;;;;;25.87;24.07;;;32.60;77.00;;;;;;5113880;28;20945;-74
2021/07/23 08:03:45;;;;;;;26.27;24.47;;;32.90;76.60;;;;;;5113734;28;20452;-73
2021/07/23 08:06:20;;;;;;;26.50;25.00;;;32.40;76.00;;;;;;5113731;28;20453;-74
2021/07/23 08:08:47;;;;;;;25.70;24.07;;;32.20;77.60;;;;;;5113910;28;20868;-74
2021/07/23 08:11:14;;;;;;;26.60;24.80;;;32.80;75.80;;;;;;5113574;28;20538;-74
2021/07/23 08:13:40;;;;;;;28.37;26.37;;;33.30;73.90;;;;;;5113578;28;20465;-73
2021/07/23 08:16:07;;;;;;;26.80;25.10;;;32.70;75.20;;;;;;5113524;28;20457;-73
2021/07/23 08:18:36;;;;;;;24.90;23.40;;;31.90;77.80;;;;;;5113527;28;20453;-73
2021/07/23 08:21:03;;;;;;;27.60;25.57;;;32.50;76.50;;;;;;5113423;28;20941;-74
2021/07/23 08:23:30;;;;;;;26.67;24.83;;;32.60;76.10;;;;;;5113434;28;20971;-73
2021/07/23 08:25:57;;;;;;;27.60;25.80;;;32.50;78.10;;;;;;5113395;28;20445;-73
2021/07/23 08:28:24;;;;;;;26.80;25.10;;;33.00;75.80;;;;;;5113349;28;20965;-74
2021/07/23 08:30:52;;;;;;;28.50;26.80;;;33.30;75.10;;;;;;5113140;28;20905;-74
2021/07/23 08:33:21;;;;;;;25.77;24.37;;;33.20;75.30;;;;;;5113159;28;20826;-74
2021/07/23 08:35:49;;;;;;;26.57;25.03;;;33.50;74.60;;;;;;5113194;28;20960;-74
2021/07/23 08:38:16;;;;;;;27.20;25.50;;;33.80;73.80;;;;;;5113244;28;20453;-74
2021/07/23 08:40:42;;;;;;;26.80;25.17;;;34.20;71.90;;;;;;5113119;28;20450;-74
2021/07/23 08:43:09;;;;;;;25.23;23.70;;;34.20;71.90;;;;;;5113292;28;20442;-74
2021/07/23 08:45:37;;;;;;;28.50;26.70;;;34.10;72.40;;;;;;5113234;28;20492;-74
2021/07/23 08:48:05;;;;;;;27.03;25.40;;;34.20;70.40;;;;;;5112833;28;20988;-73
2021/07/23 08:50:32;;;;;;;27.97;25.97;;;34.20;69.10;;;;;;5112931;28;21019;-73
2021/07/23 08:53:09;;;;;;;26.60;24.90;;;34.60;69.10;;;;;;5113025;28;20546;-74
2021/07/23 08:55:36;;;;;;;28.70;26.43;;;34.80;68.80;;;;;;5112868;28;20943;-74
2021/07/23 08:58:03;;;;;;;27.43;25.83;;;34.70;68.10;;;;;;5112930;28;20454;-74
2021/07/23 09:00:30;;;;;;;30.10;28.00;;;35.00;67.70;;;;;;5112138;28;20814;-74
2021/07/23 09:02:58;;;;;;;25.77;23.97;;;35.60;65.50;;;;;;5112608;28;20449;-73
2021/07/23 09:05:27;;;;;;;26.03;24.50;;;35.90;64.80;;;;;;5112647;28;20453;-73
2021/07/23 09:07:54;;;;;;;26.73;24.73;;;35.30;63.00;;;;;;5112671;28;20450;-73
2021/07/23 09:10:24;;;;;;;24.93;23.30;;;35.40;62.70;;;;;;5112595;28;20812;-73
2021/07/23 09:12:52;;;;;;;25.73;24.17;;;35.10;62.50;;;;;;5112328;28;20472;-73
2021/07/23 09:15:21;;;;;;;25.73;24.27;;;34.40;63.50;;;;;;5112323;28;20451;-73
2021/07/23 09:17:48;;;;;;;25.90;24.30;;;34.90;62.50;;;;;;5112395;28;20449;-73
2021/07/23 09:20:15;;;;;;;25.77;24.17;;;34.30;64.00;;;;;;5112317;28;20822;-73
2021/07/23 09:22:49;;;;;;;24.63;23.10;;;34.00;65.10;;;;;;5112432;28;20442;-73
2021/07/23 09:25:31;;;;;;;25.73;24.23;;;33.70;65.20;;;;;;5112050;28;20445;-73
2021/07/23 09:27:59;;;;;;;25.07;23.67;;;34.00;65.60;;;;;;5112021;28;20472;-73
2021/07/23 09:30:41;;;;;;;23.43;22.13;;;34.60;63.10;;;;;;5112284;28;20445;-73
2021/07/23 09:33:08;;;;;;;25.23;23.60;;;34.40;62.80;;;;;;5112318;28;20450;-73
2021/07/23 09:35:34;;;;;;;25.27;23.67;;;34.50;62.20;;;;;;5112079;28;20446;-73
2021/07/23 09:38:01;;;;;;;24.57;23.07;;;35.00;62.00;;;;;;5112071;28;20965;-73
2021/07/23 09:40:42;;;;;;;25.03;23.63;;;34.70;62.30;;;;;;5112182;28;20820;-74
2021/07/23 09:43:10;;;;;;;23.53;22.33;;;35.50;60.20;;;;;;5111968;28;20456;-74
2021/07/23 09:45:37;;;;;;;25.53;24.07;;;36.10;59.60;;;;;;5111918;28;20445;-74
2021/07/23 09:48:10;;;;;;;25.53;24.23;;;37.00;57.10;;;;;;5111750;28;20484;-74
2021/07/23 09:50:40;;;;;;;25.47;23.73;;;38.00;54.50;;;;;;5111773;28;20451;-73
2021/07/23 09:53:09;;;;;;;26.37;24.97;;;38.00;54.40;;;;;;5111759;28;20548;-74
2021/07/23 09:55:36;;;;;;;26.47;24.77;;;37.50;54.80;;;;;;5111710;28;20537;-74
2021/07/23 09:58:06;;;;;;;24.37;23.07;;;37.70;53.50;;;;;;5111889;28;20476;-74
2021/07/23 10:00:38;;;;;;;26.30;24.90;;;36.80;53.40;;;;;;5111878;28;20536;-74
2021/07/23 10:03:07;;;;;;;24.40;23.00;;;36.80;54.90;;;;;;5111459;28;20567;-74
2021/07/23 10:05:39;;;;;;;26.30;24.70;;;37.90;52.30;;;;;;5111528;28;20449;-73
2021/07/23 10:08:08;;;;;;;25.47;24.17;;;38.60;50.60;;;;;;5111877;28;20874;-74
2021/07/23 10:10:37;;;;;;;24.43;23.13;;;38.80;48.80;;;;;;5110965;28;20454;-74
2021/07/23 10:13:05;;;;;;;25.60;24.30;;;38.60;49.10;;;;;;5111033;28;20469;-74
2021/07/23 10:15:32;;;;;;;24.70;23.40;;;38.80;48.80;;;;;;5111531;28;20449;-73
2021/07/23 10:18:01;;;;;;;25.50;24.10;;;39.20;48.10;;;;;;5111370;28;20449;-74
2021/07/23 10:20:30;;;;;;;25.20;23.80;;;39.00;47.00;;;;;;5111558;28;20510;-73
2021/07/23 10:22:57;;;;;;;26.27;24.77;;;39.10;47.00;;;;;;5111435;28;20867;-74
2021/07/23 10:25:25;;;;;;;26.07;24.50;;;38.20;48.40;;;;;;5111444;28;20449;-74
2021/07/23 10:27:53;;;;;;;24.93;23.63;;;37.90;50.20;;;;;;5111563;28;20948;-74
2021/07/23 10:30:39;;;;;;;26.13;24.53;;;37.80;50.00;;;;;;5111440;28;20457;-73
2021/07/23 10:33:07;;;;;;;26.87;25.27;;;38.50;49.70;;;;;;5111444;28;20494;-74
2021/07/23 10:35:35;;;;;;;26.87;25.37;;;38.70;48.70;;;;;;5111561;28;20802;-74
2021/07/23 10:38:06;;;;;;;24.70;23.07;;;37.60;49.30;;;;;;5111463;28;20446;-73
2021/07/23 10:40:36;;;;;;;25.77;24.17;;;37.30;50.40;;;;;;5111592;28;20433;-73
2021/07/23 10:43:03;;;;;;;26.80;25.30;;;38.30;49.80;;;;;;5111388;28;20434;-74
2021/07/23 10:45:43;;;;;;;26.40;25.00;;;39.40;47.80;;;;;;5111357;28;20441;-73
2021/07/23 10:48:47;;;;;;;26.40;24.80;;;39.80;47.10;;;;;;5111173;28;20476;-74
2021/07/23 10:51:47;;;;;;;27.87;26.37;;;40.40;46.50;;;;;;5111325;28;20516;-74
2021/07/23 10:54:14;;;;;;;26.77;25.27;;;39.80;46.20;;;;;;5111295;28;20983;-74
2021/07/23 10:57:12;;;;;;;27.23;25.53;;;38.30;49.20;;;;;;5111371;28;20446;-74
2021/07/23 10:59:58;;;;;;;26.87;25.30;;;38.60;48.20;;;;;;5111191;28;20449;-74
2021/07/23 11:02:47;;;;;;;27.20;25.70;;;39.10;48.20;;;;;;5111213;28;20536;-74
2021/07/23 11:05:19;;;;;;;28.50;26.80;;;38.50;48.70;;;;;;5111264;28;20448;-74
2021/07/23 11:07:47;;;;;;;27.10;25.60;;;37.30;50.10;;;;;;5111241;28;20500;-74
2021/07/23 11:10:20;;;;;;;27.07;25.33;;;36.50;51.50;;;;;;5110969;28;20441;-73
2021/07/23 11:12:47;;;;;;;26.87;25.37;;;36.10;51.70;;;;;;5111003;28;20488;-73
2021/07/23 11:15:14;;;;;;;27.20;25.60;;;37.10;50.00;;;;;;5111174;28;20453;-73
2021/07/23 11:17:51;;;;;;;25.57;24.23;;;37.60;48.80;;;;;;5110839;28;20449;-73
2021/07/23 11:20:25;;;;;;;26.50;24.90;;;37.80;49.50;;;;;;5111062;28;20865;-73
2021/07/23 11:22:52;;;;;;;27.37;25.57;;;37.10;51.00;;;;;;5112227;28;20445;-73
2021/07/23 11:25:20;;;;;;;28.47;26.30;;;36.80;50.40;;;;;;5114832;28;20457;-73
2021/07/23 11:27:52;;;;;;;26.70;25.00;;;36.60;51.00;;;;;;5114820;28;20507;-74
2021/07/23 11:30:21;;;;;;;25.77;24.37;;;36.40;51.40;;;;;;5114701;28;20461;-73
2021/07/23 11:32:49;;;;;;;26.93;25.43;;;36.40;50.80;;;;;;5114439;28;20485;-72
2021/07/23 11:35:16;;;;;;;26.87;25.37;;;36.50;50.60;;;;;;5114626;28;20485;-74
2021/07/23 11:37:46;;;;;;;26.50;25.00;;;36.70;50.00;;;;;;5114496;28;20456;-73
2021/07/23 11:40:15;;;;;;;29.47;27.50;;;37.60;50.10;;;;;;5114660;28;20808;-73
2021/07/23 11:42:45;;;;;;;27.57;25.73;;;37.90;49.90;;;;;;5114306;28;20477;-73
2021/07/23 11:45:13;;;;;;;25.77;24.37;;;37.10;49.80;;;;;;5114246;28;20453;-73
2021/07/23 11:47:41;;;;;;;26.00;24.50;;;37.10;49.60;;;;;;5114083;28;20481;-73
2021/07/23 11:50:10;;;;;;;25.93;24.43;;;37.40;49.50;;;;;;5114319;28;20448;-73
2021/07/23 11:52:38;;;;;;;25.37;23.97;;;36.60;49.50;;;;;;5113985;28;20485;-73
2021/07/23 11:55:07;;;;;;;26.63;25.20;;;36.20;50.10;;;;;;5114082;27;20452;-72
2021/07/23 11:57:38;;;;;;;27.17;25.67;;;36.20;50.20;;;;;;5113974;28;20441;-74
2021/07/23 12:00:06;;;;;;;27.37;25.63;;;35.90;50.10;;;;;;5114048;28;20453;-73
2021/07/23 12:02:32;;;;;;;27.57;26.00;;;36.40;49.50;;;;;;5113664;28;20731;-72
2021/07/23 12:05:07;;;;;;;24.67;23.27;;;36.30;50.70;;;;;;5113686;28;20445;-73
2021/07/23 12:07:34;;;;;;;26.63;25.27;;;37.00;50.00;;;;;;5113774;28;20440;-72
2021/07/23 12:10:03;;;;;;;25.60;24.00;;;37.30;49.90;;;;;;5113690;28;21404;-73
2021/07/23 12:12:31;;;;;;;26.63;25.23;;;38.50;47.50;;;;;;5113569;28;20996;-73
2021/07/23 12:15:06;;;;;;;24.83;23.53;;;38.90;46.10;;;;;;5113799;28;20457;-73
2021/07/23 12:17:34;;;;;;;26.57;25.17;;;38.20;47.00;;;;;;5113697;28;20500;-73
2021/07/23 12:20:01;;;;;;;25.87;24.37;;;38.40;47.30;;;;;;5113580;28;20450;-73
2021/07/23 12:22:27;;;;;;;27.47;25.80;;;38.70;46.90;;;;;;5113519;28;20449;-72
2021/07/23 12:24:54;;;;;;;25.30;24.00;;;38.80;46.50;;;;;;5113374;28;20453;-74
2021/07/23 12:27:23;;;;;;;25.10;23.80;;;39.00;46.10;;;;;;5113535;28;20446;-73
2021/07/23 12:29:51;;;;;;;25.77;24.47;;;38.90;45.30;;;;;;5113393;28;20862;-73
2021/07/23 12:32:23;;;;;;;24.40;23.10;;;39.50;44.20;;;;;;5113290;28;20482;-72
2021/07/23 12:34:55;;;;;;;26.50;25.00;;;38.70;44.80;;;;;;5112186;28;20506;-73
2021/07/23 12:37:21;;;;;;;23.40;22.30;;;38.40;44.90;;;;;;5113424;28;20918;-73